Aeroporto :
LOGIN :

Iscrizione | Disclaimer

   EN    FR    IT 

 










Sommario :    VFR   VFR Marginale   IFR   IFR Intensivo   IFR Molto Intensivo
Visibilità : 
Base nubi : 
>= 8 km
>= 3000ft
5 / 8 km
1000 / 3000 ft
1500m / 5 km
500 / 1000 ft
800 / 1500m
200 / 500 ft
< 800m
< 200 ft
Simboli :   Temporali  Nebbia  Neve Forte  Precipitazioni Forti  Vento > 20 kt
SIGMETs :   Varie  Temporali  Ghiacco  Turbolenza  Onda orograficha  Ceneri Vulcaniche






- Altitudine del aeroporto : 20 ft


EBFN - Koksijde

ULTIMO METAR :
  • 090055Z AUTO 01004KT 1200 BR NCD 08/07 Q1024 AMB

METARs OBSOLETI :
  • 090025Z AUTO VRB02KT 1400 BR NCD 08/06 Q1024 AMB
  • 090010Z AUTO VRB01KT 1500 BR NCD 08/06 Q1024 AMB
  • 082348Z AUTO VRB02KT 1800 BR NCD 08/06 Q1024 YLO
  • 082325Z AUTO VRB02KT 1800 BR NCD 08/06 Q1024 YLO
  • 082255Z AUTO VRB01KT 2100 BR NCD 08/06 Q1024 YLO
  • 082225Z AUTO VRB02KT 2600 BR NCD 09/07 Q1024 YLO

TAF TAF EBFN
Valido dal 08 a 19 ore il 09 a 07 ore UTC


081541Z 0819/0907 05007KT 9999 SCT200
TEMPO 0819/0907 09005KT 4000 BR
PROB40
TEMPO 0901/0907 1200 MIFG SCT002



MetMap, La meteo Aeronautica in un colpo d'occhio ! - Copyright ORBIFLY Dicembre 2007 - Disclaimer

ORBIFLY MET'MAP TEAM :

Programmazione e sviluppo : Alexandra Zaïnal
Concezione : Baudouin d'Aumeries
Aiuto per la programmazione : Marc-Olivier Méhu
Supporto tecnico e logistico : Manuel Goepfert
Aiuto per la traduzione : Arnaldo La Scala

Contatto : metmap@orbifly.com




FONTI E CREDITI :

   NOAA